sensor_id;sensor_type;location;lat;lon;timestamp;temperature;humidity
18101;DHT22;9177;49.156;8.142;2022-09-09T00:00:54;25.00;98.50
18101;DHT22;9177;49.156;8.142;2022-09-09T00:03:27;25.00;98.50
18101;DHT22;9177;49.156;8.142;2022-09-09T00:06:04;25.00;98.50
18101;DHT22;9177;49.156;8.142;2022-09-09T00:08:41;25.00;98.50
18101;DHT22;9177;49.156;8.142;2022-09-09T00:11:12;25.00;98.50
18101;DHT22;9177;49.156;8.142;2022-09-09T00:13:46;25.00;98.50
18101;DHT22;9177;49.156;8.142;2022-09-09T00:16:17;25.00;98.50
18101;DHT22;9177;49.156;8.142;2022-09-09T00:18:52;25.00;98.80
18101;DHT22;9177;49.156;8.142;2022-09-09T00:21:25;25.00;98.50
18101;DHT22;9177;49.156;8.142;2022-09-09T00:24:09;25.00;98.50
18101;DHT22;9177;49.156;8.142;2022-09-09T00:26:42;25.00;98.50
18101;DHT22;9177;49.156;8.142;2022-09-09T00:29:18;25.00;98.50
18101;DHT22;9177;49.156;8.142;2022-09-09T00:31:47;25.00;98.50
18101;DHT22;9177;49.156;8.142;2022-09-09T00:34:18;25.00;98.50
18101;DHT22;9177;49.156;8.142;2022-09-09T00:36:49;25.00;98.50
18101;DHT22;9177;49.156;8.142;2022-09-09T00:39:25;25.00;98.60
18101;DHT22;9177;49.156;8.142;2022-09-09T00:42:03;25.00;98.50
18101;DHT22;9177;49.156;8.142;2022-09-09T00:44:37;25.00;98.60
18101;DHT22;9177;49.156;8.142;2022-09-09T00:47:12;25.00;98.60
18101;DHT22;9177;49.156;8.142;2022-09-09T00:49:50;25.00;98.60
18101;DHT22;9177;49.156;8.142;2022-09-09T00:52:31;25.00;98.60
18101;DHT22;9177;49.156;8.142;2022-09-09T00:55:05;25.00;98.60
18101;DHT22;9177;49.156;8.142;2022-09-09T00:57:34;25.00;98.60
18101;DHT22;9177;49.156;8.142;2022-09-09T01:00:19;25.00;98.60
18101;DHT22;9177;49.156;8.142;2022-09-09T01:05:41;25.00;98.60
18101;DHT22;9177;49.156;8.142;2022-09-09T01:08:19;25.00;98.60
18101;DHT22;9177;49.156;8.142;2022-09-09T01:10:54;25.00;98.60
18101;DHT22;9177;49.156;8.142;2022-09-09T01:13:25;25.00;98.60
18101;DHT22;9177;49.156;8.142;2022-09-09T01:15:53;25.00;98.60
18101;DHT22;9177;49.156;8.142;2022-09-09T01:18:22;25.00;98.70
18101;DHT22;9177;49.156;8.142;2022-09-09T01:20:56;25.00;98.70
18101;DHT22;9177;49.156;8.142;2022-09-09T01:23:48;25.00;98.70
18101;DHT22;9177;49.156;8.142;2022-09-09T01:26:24;25.00;98.70
18101;DHT22;9177;49.156;8.142;2022-09-09T01:28:52;25.00;98.70
18101;DHT22;9177;49.156;8.142;2022-09-09T01:31:22;25.00;98.70
18101;DHT22;9177;49.156;8.142;2022-09-09T01:33:50;25.00;98.70
18101;DHT22;9177;49.156;8.142;2022-09-09T01:36:24;25.00;98.70
18101;DHT22;9177;49.156;8.142;2022-09-09T01:38:52;25.00;98.70
18101;DHT22;9177;49.156;8.142;2022-09-09T01:41:22;25.00;98.70
18101;DHT22;9177;49.156;8.142;2022-09-09T01:43:49;25.00;98.70
18101;DHT22;9177;49.156;8.142;2022-09-09T01:46:17;25.00;98.70
18101;DHT22;9177;49.156;8.142;2022-09-09T01:48:45;25.00;98.70
18101;DHT22;9177;49.156;8.142;2022-09-09T01:51:13;25.00;98.70
18101;DHT22;9177;49.156;8.142;2022-09-09T01:53:41;25.00;98.70
18101;DHT22;9177;49.156;8.142;2022-09-09T01:56:24;25.00;98.80
18101;DHT22;9177;49.156;8.142;2022-09-09T01:59:02;25.00;98.80
18101;DHT22;9177;49.156;8.142;2022-09-09T02:01:39;25.00;98.80
18101;DHT22;9177;49.156;8.142;2022-09-09T02:04:21;25.00;98.80
18101;DHT22;9177;49.156;8.142;2022-09-09T02:06:54;24.90;98.70
18101;DHT22;9177;49.156;8.142;2022-09-09T02:09:23;24.90;98.80
18101;DHT22;9177;49.156;8.142;2022-09-09T02:11:59;24.90;98.80
18101;DHT22;9177;49.156;8.142;2022-09-09T02:14:31;24.90;98.80
18101;DHT22;9177;49.156;8.142;2022-09-09T02:17:05;24.90;98.80
18101;DHT22;9177;49.156;8.142;2022-09-09T02:19:36;24.90;98.80
18101;DHT22;9177;49.156;8.142;2022-09-09T02:22:04;24.90;98.80
18101;DHT22;9177;49.156;8.142;2022-09-09T02:24:36;24.90;98.80
18101;DHT22;9177;49.156;8.142;2022-09-09T02:27:07;24.90;98.80
18101;DHT22;9177;49.156;8.142;2022-09-09T02:29:37;24.90;98.80
18101;DHT22;9177;49.156;8.142;2022-09-09T02:32:07;24.90;98.80
18101;DHT22;9177;49.156;8.142;2022-09-09T02:34:37;24.90;98.80
18101;DHT22;9177;49.156;8.142;2022-09-09T02:37:08;24.90;98.80
18101;DHT22;9177;49.156;8.142;2022-09-09T02:39:36;24.90;98.80
18101;DHT22;9177;49.156;8.142;2022-09-09T02:42:05;24.90;98.80
18101;DHT22;9177;49.156;8.142;2022-09-09T02:44:33;24.90;98.80
18101;DHT22;9177;49.156;8.142;2022-09-09T02:50:03;24.90;98.80
18101;DHT22;9177;49.156;8.142;2022-09-09T02:52:38;24.90;98.80
18101;DHT22;9177;49.156;8.142;2022-09-09T02:55:12;24.90;98.80
18101;DHT22;9177;49.156;8.142;2022-09-09T02:57:46;24.90;98.80
18101;DHT22;9177;49.156;8.142;2022-09-09T03:00:14;24.90;99.20
18101;DHT22;9177;49.156;8.142;2022-09-09T03:02:43;24.90;98.80
18101;DHT22;9177;49.156;8.142;2022-09-09T03:05:10;24.90;98.80
18101;DHT22;9177;49.156;8.142;2022-09-09T03:07:38;24.90;98.80
18101;DHT22;9177;49.156;8.142;2022-09-09T03:10:06;24.90;98.80
18101;DHT22;9177;49.156;8.142;2022-09-09T03:12:36;24.90;98.80
18101;DHT22;9177;49.156;8.142;2022-09-09T03:15:05;24.90;98.80
18101;DHT22;9177;49.156;8.142;2022-09-09T03:17:32;24.90;98.80
18101;DHT22;9177;49.156;8.142;2022-09-09T03:19:59;24.90;98.80
18101;DHT22;9177;49.156;8.142;2022-09-09T03:22:26;24.90;98.80
18101;DHT22;9177;49.156;8.142;2022-09-09T03:24:53;24.90;98.80
18101;DHT22;9177;49.156;8.142;2022-09-09T03:27:20;24.90;98.80
18101;DHT22;9177;49.156;8.142;2022-09-09T03:29:47;24.90;98.80
18101;DHT22;9177;49.156;8.142;2022-09-09T03:32:18;24.90;98.80
18101;DHT22;9177;49.156;8.142;2022-09-09T03:34:48;24.90;98.90
18101;DHT22;9177;49.156;8.142;2022-09-09T03:37:15;24.90;98.80
18101;DHT22;9177;49.156;8.142;2022-09-09T03:39:43;24.90;98.80
18101;DHT22;9177;49.156;8.142;2022-09-09T03:42:12;24.80;98.80
18101;DHT22;9177;49.156;8.142;2022-09-09T03:44:39;24.90;98.80
18101;DHT22;9177;49.156;8.142;2022-09-09T03:47:07;24.80;98.80
18101;DHT22;9177;49.156;8.142;2022-09-09T03:49:35;24.80;98.80
18101;DHT22;9177;49.156;8.142;2022-09-09T03:52:02;24.80;98.90
18101;DHT22;9177;49.156;8.142;2022-09-09T03:54:29;24.80;98.80
18101;DHT22;9177;49.156;8.142;2022-09-09T03:56:56;24.80;98.80
18101;DHT22;9177;49.156;8.142;2022-09-09T03:59:23;24.80;98.80
18101;DHT22;9177;49.156;8.142;2022-09-09T04:01:50;24.80;98.80
18101;DHT22;9177;49.156;8.142;2022-09-09T04:04:17;24.80;98.80
18101;DHT22;9177;49.156;8.142;2022-09-09T04:06:46;24.80;98.80
18101;DHT22;9177;49.156;8.142;2022-09-09T04:09:13;24.80;98.80
18101;DHT22;9177;49.156;8.142;2022-09-09T04:11:40;24.80;98.80
18101;DHT22;9177;49.156;8.142;2022-09-09T04:14:07;24.80;98.90
18101;DHT22;9177;49.156;8.142;2022-09-09T04:16:34;24.80;98.90
18101;DHT22;9177;49.156;8.142;2022-09-09T04:19:03;24.80;98.90
18101;DHT22;9177;49.156;8.142;2022-09-09T04:21:32;24.80;98.90
18101;DHT22;9177;49.156;8.142;2022-09-09T04:24:00;24.80;98.90
18101;DHT22;9177;49.156;8.142;2022-09-09T04:26:27;24.80;98.90
18101;DHT22;9177;49.156;8.142;2022-09-09T04:28:54;24.80;98.90
18101;DHT22;9177;49.156;8.142;2022-09-09T04:31:22;24.80;98.90
18101;DHT22;9177;49.156;8.142;2022-09-09T04:33:50;24.80;98.90
18101;DHT22;9177;49.156;8.142;2022-09-09T04:36:17;24.80;98.90
18101;DHT22;9177;49.156;8.142;2022-09-09T04:38:47;24.80;98.90
18101;DHT22;9177;49.156;8.142;2022-09-09T04:41:16;24.80;98.90
18101;DHT22;9177;49.156;8.142;2022-09-09T04:43:44;24.80;98.90
18101;DHT22;9177;49.156;8.142;2022-09-09T04:46:11;24.80;98.80
18101;DHT22;9177;49.156;8.142;2022-09-09T04:48:38;24.80;98.90
18101;DHT22;9177;49.156;8.142;2022-09-09T04:51:08;24.80;98.90
18101;DHT22;9177;49.156;8.142;2022-09-09T04:53:35;24.80;98.90
18101;DHT22;9177;49.156;8.142;2022-09-09T04:56:07;24.80;98.90
18101;DHT22;9177;49.156;8.142;2022-09-09T04:58:37;24.80;98.90
18101;DHT22;9177;49.156;8.142;2022-09-09T05:01:05;24.80;98.90
18101;DHT22;9177;49.156;8.142;2022-09-09T05:03:32;24.80;98.90
18101;DHT22;9177;49.156;8.142;2022-09-09T05:06:04;24.80;98.80
18101;DHT22;9177;49.156;8.142;2022-09-09T05:08:32;24.80;98.90
18101;DHT22;9177;49.156;8.142;2022-09-09T05:10:59;24.80;98.90
18101;DHT22;9177;49.156;8.142;2022-09-09T05:13:26;24.80;98.90
18101;DHT22;9177;49.156;8.142;2022-09-09T05:15:54;24.80;98.90
18101;DHT22;9177;49.156;8.142;2022-09-09T05:18:22;24.80;98.90
18101;DHT22;9177;49.156;8.142;2022-09-09T05:20:49;24.80;98.90
18101;DHT22;9177;49.156;8.142;2022-09-09T05:23:16;24.70;98.90
18101;DHT22;9177;49.156;8.142;2022-09-09T05:25:43;24.80;98.90
18101;DHT22;9177;49.156;8.142;2022-09-09T05:28:12;24.80;98.90
18101;DHT22;9177;49.156;8.142;2022-09-09T05:30:39;24.80;98.90
18101;DHT22;9177;49.156;8.142;2022-09-09T05:33:07;24.80;98.90
18101;DHT22;9177;49.156;8.142;2022-09-09T05:35:34;24.80;98.90
18101;DHT22;9177;49.156;8.142;2022-09-09T05:38:01;24.80;98.90
18101;DHT22;9177;49.156;8.142;2022-09-09T05:40:28;24.80;98.90
18101;DHT22;9177;49.156;8.142;2022-09-09T05:43:00;24.70;98.90
18101;DHT22;9177;49.156;8.142;2022-09-09T05:45:27;24.70;98.90
18101;DHT22;9177;49.156;8.142;2022-09-09T05:47:54;24.80;98.90
18101;DHT22;9177;49.156;8.142;2022-09-09T05:50:22;24.70;98.90
18101;DHT22;9177;49.156;8.142;2022-09-09T05:52:49;24.70;98.90
18101;DHT22;9177;49.156;8.142;2022-09-09T05:55:15;24.70;98.90
18101;DHT22;9177;49.156;8.142;2022-09-09T05:57:52;24.70;98.90
18101;DHT22;9177;49.156;8.142;2022-09-09T06:00:19;24.70;98.90
18101;DHT22;9177;49.156;8.142;2022-09-09T06:02:50;24.70;98.90
18101;DHT22;9177;49.156;8.142;2022-09-09T06:05:18;24.70;98.90
18101;DHT22;9177;49.156;8.142;2022-09-09T06:07:46;24.80;99.00
18101;DHT22;9177;49.156;8.142;2022-09-09T06:10:13;24.70;98.90
18101;DHT22;9177;49.156;8.142;2022-09-09T06:12:41;24.70;98.90
18101;DHT22;9177;49.156;8.142;2022-09-09T06:15:08;24.70;98.90
18101;DHT22;9177;49.156;8.142;2022-09-09T06:17:35;24.70;98.90
18101;DHT22;9177;49.156;8.142;2022-09-09T06:20:03;24.70;98.90
18101;DHT22;9177;49.156;8.142;2022-09-09T06:22:30;24.70;98.90
18101;DHT22;9177;49.156;8.142;2022-09-09T06:24:58;24.70;98.90
18101;DHT22;9177;49.156;8.142;2022-09-09T06:27:27;24.70;99.00
18101;DHT22;9177;49.156;8.142;2022-09-09T06:29:54;24.70;98.90
18101;DHT22;9177;49.156;8.142;2022-09-09T06:32:21;24.70;99.00
18101;DHT22;9177;49.156;8.142;2022-09-09T06:34:49;24.70;98.90
18101;DHT22;9177;49.156;8.142;2022-09-09T06:37:15;24.70;98.90
18101;DHT22;9177;49.156;8.142;2022-09-09T06:39:42;24.70;99.00
18101;DHT22;9177;49.156;8.142;2022-09-09T06:42:11;24.70;98.90
18101;DHT22;9177;49.156;8.142;2022-09-09T06:44:38;24.70;98.90
18101;DHT22;9177;49.156;8.142;2022-09-09T06:47:05;24.70;99.00
18101;DHT22;9177;49.156;8.142;2022-09-09T06:49:33;24.80;99.00
18101;DHT22;9177;49.156;8.142;2022-09-09T06:52:00;24.70;99.00
18101;DHT22;9177;49.156;8.142;2022-09-09T06:54:27;24.70;99.00
18101;DHT22;9177;49.156;8.142;2022-09-09T06:56:54;24.70;99.00
18101;DHT22;9177;49.156;8.142;2022-09-09T06:59:22;24.70;99.00
18101;DHT22;9177;49.156;8.142;2022-09-09T07:01:49;24.70;99.00
18101;DHT22;9177;49.156;8.142;2022-09-09T07:04:17;24.70;99.00
18101;DHT22;9177;49.156;8.142;2022-09-09T07:06:45;24.70;99.00
18101;DHT22;9177;49.156;8.142;2022-09-09T07:09:13;24.70;99.00
18101;DHT22;9177;49.156;8.142;2022-09-09T07:11:43;24.70;99.00
18101;DHT22;9177;49.156;8.142;2022-09-09T07:14:11;24.70;98.90
18101;DHT22;9177;49.156;8.142;2022-09-09T07:16:41;24.70;98.90
18101;DHT22;9177;49.156;8.142;2022-09-09T07:19:08;24.80;99.00
18101;DHT22;9177;49.156;8.142;2022-09-09T07:21:35;24.80;99.00
18101;DHT22;9177;49.156;8.142;2022-09-09T07:24:03;24.80;99.00
18101;DHT22;9177;49.156;8.142;2022-09-09T07:26:32;24.80;98.90
18101;DHT22;9177;49.156;8.142;2022-09-09T07:28:59;24.80;98.90
18101;DHT22;9177;49.156;8.142;2022-09-09T07:31:28;24.80;98.90
18101;DHT22;9177;49.156;8.142;2022-09-09T07:33:58;24.80;98.90
18101;DHT22;9177;49.156;8.142;2022-09-09T07:36:27;24.80;98.90
18101;DHT22;9177;49.156;8.142;2022-09-09T07:38:57;24.80;98.90
18101;DHT22;9177;49.156;8.142;2022-09-09T07:41:25;24.80;98.90
18101;DHT22;9177;49.156;8.142;2022-09-09T07:43:53;24.80;98.80
18101;DHT22;9177;49.156;8.142;2022-09-09T07:46:22;24.90;98.70
18101;DHT22;9177;49.156;8.142;2022-09-09T07:48:51;24.90;98.80
18101;DHT22;9177;49.156;8.142;2022-09-09T07:51:22;25.00;98.70
18101;DHT22;9177;49.156;8.142;2022-09-09T07:53:52;25.00;98.70
18101;DHT22;9177;49.156;8.142;2022-09-09T07:56:20;25.00;98.70
18101;DHT22;9177;49.156;8.142;2022-09-09T07:58:48;25.00;98.70
18101;DHT22;9177;49.156;8.142;2022-09-09T08:01:17;24.90;98.70
18101;DHT22;9177;49.156;8.142;2022-09-09T08:03:46;24.90;98.80
18101;DHT22;9177;49.156;8.142;2022-09-09T08:06:14;24.90;98.80
18101;DHT22;9177;49.156;8.142;2022-09-09T08:08:42;24.90;98.90
18101;DHT22;9177;49.156;8.142;2022-09-09T08:11:10;24.80;98.90
18101;DHT22;9177;49.156;8.142;2022-09-09T08:13:38;24.80;98.90
18101;DHT22;9177;49.156;8.142;2022-09-09T08:16:07;24.90;98.90
18101;DHT22;9177;49.156;8.142;2022-09-09T08:18:34;24.90;98.80
18101;DHT22;9177;49.156;8.142;2022-09-09T08:21:09;24.90;98.80
18101;DHT22;9177;49.156;8.142;2022-09-09T08:23:38;25.00;98.80
18101;DHT22;9177;49.156;8.142;2022-09-09T08:26:10;25.00;98.70
18101;DHT22;9177;49.156;8.142;2022-09-09T08:28:38;25.00;98.70
18101;DHT22;9177;49.156;8.142;2022-09-09T08:31:11;25.00;98.70
18101;DHT22;9177;49.156;8.142;2022-09-09T08:33:40;25.10;98.60
18101;DHT22;9177;49.156;8.142;2022-09-09T08:36:09;25.10;98.60
18101;DHT22;9177;49.156;8.142;2022-09-09T08:38:37;25.10;98.60
18101;DHT22;9177;49.156;8.142;2022-09-09T08:41:24;25.10;98.60
18101;DHT22;9177;49.156;8.142;2022-09-09T08:44:02;25.10;98.60
18101;DHT22;9177;49.156;8.142;2022-09-09T08:46:36;25.20;98.60
18101;DHT22;9177;49.156;8.142;2022-09-09T08:49:17;25.20;98.60
18101;DHT22;9177;49.156;8.142;2022-09-09T08:51:48;25.20;98.60
18101;DHT22;9177;49.156;8.142;2022-09-09T08:54:16;25.20;98.50
18101;DHT22;9177;49.156;8.142;2022-09-09T08:56:45;25.30;98.50
18101;DHT22;9177;49.156;8.142;2022-09-09T08:59:16;25.30;98.50
18101;DHT22;9177;49.156;8.142;2022-09-09T09:02:00;25.30;98.50
18101;DHT22;9177;49.156;8.142;2022-09-09T09:04:38;25.30;98.50
18101;DHT22;9177;49.156;8.142;2022-09-09T09:07:21;25.30;98.50
18101;DHT22;9177;49.156;8.142;2022-09-09T09:09:57;25.30;98.50
18101;DHT22;9177;49.156;8.142;2022-09-09T09:12:29;25.20;98.60
18101;DHT22;9177;49.156;8.142;2022-09-09T09:14:56;25.20;98.60
18101;DHT22;9177;49.156;8.142;2022-09-09T09:17:27;25.20;98.70
18101;DHT22;9177;49.156;8.142;2022-09-09T09:19:57;25.10;98.70
18101;DHT22;9177;49.156;8.142;2022-09-09T09:22:30;25.10;98.80
18101;DHT22;9177;49.156;8.142;2022-09-09T09:25:04;25.00;98.80
18101;DHT22;9177;49.156;8.142;2022-09-09T09:27:41;25.00;98.90
18101;DHT22;9177;49.156;8.142;2022-09-09T09:30:15;25.00;99.00
18101;DHT22;9177;49.156;8.142;2022-09-09T09:32:49;25.00;99.00
18101;DHT22;9177;49.156;8.142;2022-09-09T09:35:17;25.00;99.00
18101;DHT22;9177;49.156;8.142;2022-09-09T09:37:44;25.00;99.00
18101;DHT22;9177;49.156;8.142;2022-09-09T09:40:13;25.00;99.00
18101;DHT22;9177;49.156;8.142;2022-09-09T09:42:49;25.00;99.00
18101;DHT22;9177;49.156;8.142;2022-09-09T09:45:26;25.00;99.10
18101;DHT22;9177;49.156;8.142;2022-09-09T09:47:59;25.10;99.10
18101;DHT22;9177;49.156;8.142;2022-09-09T09:50:26;25.20;99.20
18101;DHT22;9177;49.156;8.142;2022-09-09T09:52:57;25.20;99.10
18101;DHT22;9177;49.156;8.142;2022-09-09T09:55:26;25.20;99.20
18101;DHT22;9177;49.156;8.142;2022-09-09T09:58:06;25.20;99.10
18101;DHT22;9177;49.156;8.142;2022-09-09T10:00:33;25.20;99.20
18101;DHT22;9177;49.156;8.142;2022-09-09T10:03:01;25.20;99.10
18101;DHT22;9177;49.156;8.142;2022-09-09T10:05:29;25.20;99.20
18101;DHT22;9177;49.156;8.142;2022-09-09T10:08:04;25.20;99.20
18101;DHT22;9177;49.156;8.142;2022-09-09T10:10:47;25.20;99.30
18101;DHT22;9177;49.156;8.142;2022-09-09T10:13:22;25.10;99.30
18101;DHT22;9177;49.156;8.142;2022-09-09T10:16:01;25.20;99.30
18101;DHT22;9177;49.156;8.142;2022-09-09T10:18:43;25.10;99.20
18101;DHT22;9177;49.156;8.142;2022-09-09T10:21:23;25.10;99.30
18101;DHT22;9177;49.156;8.142;2022-09-09T10:24:17;25.10;99.40
18101;DHT22;9177;49.156;8.142;2022-09-09T10:26:58;25.10;99.40
18101;DHT22;9177;49.156;8.142;2022-09-09T10:29:39;25.10;99.40
18101;DHT22;9177;49.156;8.142;2022-09-09T10:32:25;25.00;99.40
18101;DHT22;9177;49.156;8.142;2022-09-09T10:35:01;25.00;99.40
18101;DHT22;9177;49.156;8.142;2022-09-09T10:37:52;25.00;99.50
18101;DHT22;9177;49.156;8.142;2022-09-09T10:40:32;25.00;99.50
18101;DHT22;9177;49.156;8.142;2022-09-09T10:43:12;25.00;99.50
18101;DHT22;9177;49.156;8.142;2022-09-09T10:45:53;25.00;99.70
18101;DHT22;9177;49.156;8.142;2022-09-09T10:48:32;25.00;99.90
18101;DHT22;9177;49.156;8.142;2022-09-09T10:51:10;25.00;99.90
18101;DHT22;9177;49.156;8.142;2022-09-09T10:53:49;25.00;99.90
18101;DHT22;9177;49.156;8.142;2022-09-09T10:56:21;24.90;99.90
18101;DHT22;9177;49.156;8.142;2022-09-09T10:58:52;25.00;99.90
18101;DHT22;9177;49.156;8.142;2022-09-09T11:01:25;24.90;99.90
18101;DHT22;9177;49.156;8.142;2022-09-09T11:03:56;25.00;99.90
18101;DHT22;9177;49.156;8.142;2022-09-09T11:06:29;25.00;99.90
18101;DHT22;9177;49.156;8.142;2022-09-09T11:09:00;25.00;99.90
18101;DHT22;9177;49.156;8.142;2022-09-09T11:11:32;25.00;99.90
18101;DHT22;9177;49.156;8.142;2022-09-09T11:14:07;25.10;99.90
18101;DHT22;9177;49.156;8.142;2022-09-09T11:16:40;25.10;99.90
18101;DHT22;9177;49.156;8.142;2022-09-09T11:19:14;25.20;99.90
18101;DHT22;9177;49.156;8.142;2022-09-09T11:21:46;25.30;99.90
18101;DHT22;9177;49.156;8.142;2022-09-09T11:24:21;25.30;99.90
18101;DHT22;9177;49.156;8.142;2022-09-09T11:26:55;25.30;99.90
18101;DHT22;9177;49.156;8.142;2022-09-09T11:33:08;25.20;99.90
18101;DHT22;9177;49.156;8.142;2022-09-09T11:35:52;25.20;99.90
18101;DHT22;9177;49.156;8.142;2022-09-09T11:38:26;25.20;99.90
18101;DHT22;9177;49.156;8.142;2022-09-09T11:40:58;25.20;99.90
18101;DHT22;9177;49.156;8.142;2022-09-09T11:43:30;25.20;99.90
18101;DHT22;9177;49.156;8.142;2022-09-09T11:46:01;25.20;99.90
18101;DHT22;9177;49.156;8.142;2022-09-09T11:48:33;25.20;99.90
18101;DHT22;9177;49.156;8.142;2022-09-09T11:51:03;25.20;99.90
18101;DHT22;9177;49.156;8.142;2022-09-09T11:53:31;25.20;99.90
18101;DHT22;9177;49.156;8.142;2022-09-09T11:56:07;25.20;99.90
18101;DHT22;9177;49.156;8.142;2022-09-09T11:58:41;25.20;99.90
18101;DHT22;9177;49.156;8.142;2022-09-09T12:01:30;25.20;99.90
18101;DHT22;9177;49.156;8.142;2022-09-09T12:04:27;25.30;99.90
18101;DHT22;9177;49.156;8.142;2022-09-09T12:06:57;25.40;99.90
18101;DHT22;9177;49.156;8.142;2022-09-09T12:09:33;25.40;99.90
18101;DHT22;9177;49.156;8.142;2022-09-09T12:12:18;25.60;99.90
18101;DHT22;9177;49.156;8.142;2022-09-09T12:14:58;25.70;99.90
18101;DHT22;9177;49.156;8.142;2022-09-09T12:17:28;25.70;99.90
18101;DHT22;9177;49.156;8.142;2022-09-09T12:20:12;25.70;99.90
18101;DHT22;9177;49.156;8.142;2022-09-09T12:26:08;25.60;99.90
18101;DHT22;9177;49.156;8.142;2022-09-09T12:28:55;25.50;99.90
18101;DHT22;9177;49.156;8.142;2022-09-09T12:31:27;25.40;99.90
18101;DHT22;9177;49.156;8.142;2022-09-09T12:34:09;25.40;99.90
18101;DHT22;9177;49.156;8.142;2022-09-09T12:36:40;25.30;99.90
18101;DHT22;9177;49.156;8.142;2022-09-09T12:39:16;25.30;99.90
18101;DHT22;9177;49.156;8.142;2022-09-09T12:41:51;25.20;99.90
18101;DHT22;9177;49.156;8.142;2022-09-09T12:44:22;25.20;99.90
18101;DHT22;9177;49.156;8.142;2022-09-09T12:46:51;25.20;99.90
18101;DHT22;9177;49.156;8.142;2022-09-09T12:49:29;25.10;99.90
18101;DHT22;9177;49.156;8.142;2022-09-09T12:52:02;25.10;99.90
18101;DHT22;9177;49.156;8.142;2022-09-09T12:54:36;25.10;99.90
18101;DHT22;9177;49.156;8.142;2022-09-09T12:57:04;25.00;99.90
18101;DHT22;9177;49.156;8.142;2022-09-09T12:59:36;25.00;99.90
18101;DHT22;9177;49.156;8.142;2022-09-09T13:02:17;25.00;99.90
18101;DHT22;9177;49.156;8.142;2022-09-09T13:04:46;25.00;99.90
18101;DHT22;9177;49.156;8.142;2022-09-09T13:07:15;25.00;99.90
18101;DHT22;9177;49.156;8.142;2022-09-09T13:09:42;25.00;99.90
18101;DHT22;9177;49.156;8.142;2022-09-09T13:12:14;25.00;99.90
18101;DHT22;9177;49.156;8.142;2022-09-09T13:14:43;25.00;99.90
18101;DHT22;9177;49.156;8.142;2022-09-09T13:17:19;25.00;99.90
18101;DHT22;9177;49.156;8.142;2022-09-09T13:19:48;25.00;99.90
18101;DHT22;9177;49.156;8.142;2022-09-09T13:22:36;25.00;99.90
18101;DHT22;9177;49.156;8.142;2022-09-09T13:25:17;25.10;99.90
18101;DHT22;9177;49.156;8.142;2022-09-09T13:27:53;25.20;99.90
18101;DHT22;9177;49.156;8.142;2022-09-09T13:30:22;25.40;99.90
18101;DHT22;9177;49.156;8.142;2022-09-09T13:33:17;25.50;99.90
18101;DHT22;9177;49.156;8.142;2022-09-09T13:35:47;25.60;99.90
18101;DHT22;9177;49.156;8.142;2022-09-09T13:38:16;25.70;99.90
18101;DHT22;9177;49.156;8.142;2022-09-09T13:40:53;25.70;99.90
18101;DHT22;9177;49.156;8.142;2022-09-09T13:43:22;25.70;99.80
18101;DHT22;9177;49.156;8.142;2022-09-09T13:45:56;25.80;99.70
18101;DHT22;9177;49.156;8.142;2022-09-09T13:48:25;26.00;99.60
18101;DHT22;9177;49.156;8.142;2022-09-09T13:50:55;26.00;99.60
18101;DHT22;9177;49.156;8.142;2022-09-09T13:53:23;26.00;99.40
18101;DHT22;9177;49.156;8.142;2022-09-09T13:55:50;26.00;99.40
18101;DHT22;9177;49.156;8.142;2022-09-09T13:58:18;26.00;99.40
18101;DHT22;9177;49.156;8.142;2022-09-09T14:00:45;26.00;99.20
18101;DHT22;9177;49.156;8.142;2022-09-09T14:03:13;26.00;99.30
18101;DHT22;9177;49.156;8.142;2022-09-09T14:05:40;26.00;99.50
18101;DHT22;9177;49.156;8.142;2022-09-09T14:08:11;26.10;99.20
18101;DHT22;9177;49.156;8.142;2022-09-09T14:10:42;26.20;99.00
18101;DHT22;9177;49.156;8.142;2022-09-09T14:13:09;26.30;99.00
18101;DHT22;9177;49.156;8.142;2022-09-09T14:15:37;26.20;98.90
18101;DHT22;9177;49.156;8.142;2022-09-09T14:18:04;26.10;99.00
18101;DHT22;9177;49.156;8.142;2022-09-09T14:20:31;26.00;99.00
18101;DHT22;9177;49.156;8.142;2022-09-09T14:22:58;25.90;99.00
18101;DHT22;9177;49.156;8.142;2022-09-09T14:25:25;25.80;99.00
18101;DHT22;9177;49.156;8.142;2022-09-09T14:27:54;25.70;99.10
18101;DHT22;9177;49.156;8.142;2022-09-09T14:30:21;25.70;99.10
18101;DHT22;9177;49.156;8.142;2022-09-09T14:32:49;25.60;99.10
18101;DHT22;9177;49.156;8.142;2022-09-09T14:35:15;25.60;99.20
18101;DHT22;9177;49.156;8.142;2022-09-09T14:37:44;25.50;99.20
18101;DHT22;9177;49.156;8.142;2022-09-09T14:40:11;25.50;99.30
18101;DHT22;9177;49.156;8.142;2022-09-09T14:42:39;25.40;99.30
18101;DHT22;9177;49.156;8.142;2022-09-09T14:45:09;25.40;99.30
18101;DHT22;9177;49.156;8.142;2022-09-09T14:47:36;25.40;99.40
18101;DHT22;9177;49.156;8.142;2022-09-09T14:50:04;25.40;99.40
18101;DHT22;9177;49.156;8.142;2022-09-09T14:52:31;25.30;99.40
18101;DHT22;9177;49.156;8.142;2022-09-09T14:54:58;25.30;99.50
18101;DHT22;9177;49.156;8.142;2022-09-09T14:57:25;25.40;99.50
18101;DHT22;9177;49.156;8.142;2022-09-09T14:59:52;25.40;99.50
18101;DHT22;9177;49.156;8.142;2022-09-09T15:02:21;25.40;99.50
18101;DHT22;9177;49.156;8.142;2022-09-09T15:04:48;25.40;99.40
18101;DHT22;9177;49.156;8.142;2022-09-09T15:07:15;25.40;99.40
18101;DHT22;9177;49.156;8.142;2022-09-09T15:09:45;25.40;99.50
18101;DHT22;9177;49.156;8.142;2022-09-09T15:12:13;25.50;99.40
18101;DHT22;9177;49.156;8.142;2022-09-09T15:14:40;25.50;99.30
18101;DHT22;9177;49.156;8.142;2022-09-09T15:17:08;25.60;99.70
18101;DHT22;9177;49.156;8.142;2022-09-09T15:19:36;25.60;99.20
18101;DHT22;9177;49.156;8.142;2022-09-09T15:22:04;25.70;99.20
18101;DHT22;9177;49.156;8.142;2022-09-09T15:24:33;25.80;99.10
18101;DHT22;9177;49.156;8.142;2022-09-09T15:27:00;25.90;99.00
18101;DHT22;9177;49.156;8.142;2022-09-09T15:29:28;26.00;98.90
18101;DHT22;9177;49.156;8.142;2022-09-09T15:31:55;26.00;98.80
18101;DHT22;9177;49.156;8.142;2022-09-09T15:34:22;26.00;98.80
18101;DHT22;9177;49.156;8.142;2022-09-09T15:36:50;26.00;98.80
18101;DHT22;9177;49.156;8.142;2022-09-09T15:39:18;25.90;98.80
18101;DHT22;9177;49.156;8.142;2022-09-09T15:41:46;25.90;98.90
18101;DHT22;9177;49.156;8.142;2022-09-09T15:44:14;26.00;98.80
18101;DHT22;9177;49.156;8.142;2022-09-09T15:46:43;26.00;98.80
18101;DHT22;9177;49.156;8.142;2022-09-09T15:49:11;26.00;98.70
18101;DHT22;9177;49.156;8.142;2022-09-09T15:51:40;26.00;98.80
18101;DHT22;9177;49.156;8.142;2022-09-09T15:54:10;25.90;98.80
18101;DHT22;9177;49.156;8.142;2022-09-09T15:56:38;25.80;98.90
18101;DHT22;9177;49.156;8.142;2022-09-09T15:59:05;25.70;98.80
18101;DHT22;9177;49.156;8.142;2022-09-09T16:01:32;25.70;98.90
18101;DHT22;9177;49.156;8.142;2022-09-09T16:04:00;25.60;98.90
18101;DHT22;9177;49.156;8.142;2022-09-09T16:06:28;25.60;98.90
18101;DHT22;9177;49.156;8.142;2022-09-09T16:08:58;25.50;98.90
18101;DHT22;9177;49.156;8.142;2022-09-09T16:11:29;25.50;99.00
18101;DHT22;9177;49.156;8.142;2022-09-09T16:13:56;25.40;99.00
18101;DHT22;9177;49.156;8.142;2022-09-09T16:16:26;25.40;99.00
18101;DHT22;9177;49.156;8.142;2022-09-09T16:18:54;25.40;99.10
18101;DHT22;9177;49.156;8.142;2022-09-09T16:21:24;25.30;99.00